sensor_id;sensor_type;location;lat;lon;timestamp;temperature;humidity
15286;DHT22;7744;52.172;10.668;2023-05-14T00:01:23;11.00;1.00
15286;DHT22;7744;52.172;10.668;2023-05-14T00:04:11;11.30;1.00
15286;DHT22;7744;52.172;10.668;2023-05-14T00:12:29;11.00;1.00
15286;DHT22;7744;52.172;10.668;2023-05-14T00:15:04;10.60;1.00
15286;DHT22;7744;52.172;10.668;2023-05-14T00:17:33;11.00;1.00
15286;DHT22;7744;52.172;10.668;2023-05-14T00:20:07;11.00;1.00
15286;DHT22;7744;52.172;10.668;2023-05-14T00:23:34;10.80;1.00
15286;DHT22;7744;52.172;10.668;2023-05-14T00:26:08;10.70;1.00
15286;DHT22;7744;52.172;10.668;2023-05-14T00:28:42;10.80;1.00
15286;DHT22;7744;52.172;10.668;2023-05-14T00:31:22;10.90;1.00
15286;DHT22;7744;52.172;10.668;2023-05-14T00:34:02;10.70;1.00
15286;DHT22;7744;52.172;10.668;2023-05-14T00:36:34;10.70;1.00
15286;DHT22;7744;52.172;10.668;2023-05-14T00:39:13;10.70;1.00
15286;DHT22;7744;52.172;10.668;2023-05-14T00:41:42;10.60;1.00
15286;DHT22;7744;52.172;10.668;2023-05-14T00:44:21;10.60;1.00
15286;DHT22;7744;52.172;10.668;2023-05-14T00:46:54;10.50;1.00
15286;DHT22;7744;52.172;10.668;2023-05-14T00:49:35;10.50;1.00
15286;DHT22;7744;52.172;10.668;2023-05-14T00:52:17;10.60;1.00
15286;DHT22;7744;52.172;10.668;2023-05-14T00:54:47;10.50;1.00
15286;DHT22;7744;52.172;10.668;2023-05-14T00:57:22;10.20;1.00
15286;DHT22;7744;52.172;10.668;2023-05-14T00:59:55;10.40;1.00
15286;DHT22;7744;52.172;10.668;2023-05-14T01:02:33;10.40;1.00
15286;DHT22;7744;52.172;10.668;2023-05-14T01:05:15;10.50;1.00
15286;DHT22;7744;52.172;10.668;2023-05-14T01:10:38;10.50;1.00
15286;DHT22;7744;52.172;10.668;2023-05-14T01:13:37;10.60;1.00
15286;DHT22;7744;52.172;10.668;2023-05-14T01:16:24;10.40;1.00
15286;DHT22;7744;52.172;10.668;2023-05-14T01:19:03;10.50;1.00
15286;DHT22;7744;52.172;10.668;2023-05-14T01:21:44;10.40;1.00
15286;DHT22;7744;52.172;10.668;2023-05-14T01:24:15;9.80;1.00
15286;DHT22;7744;52.172;10.668;2023-05-14T01:26:44;10.50;19.90
15286;DHT22;7744;52.172;10.668;2023-05-14T01:29:23;11.30;1.00
15286;DHT22;7744;52.172;10.668;2023-05-14T01:31:55;10.30;1.00
15286;DHT22;7744;52.172;10.668;2023-05-14T01:34:26;10.20;1.00
15286;DHT22;7744;52.172;10.668;2023-05-14T01:36:59;10.50;1.00
15286;DHT22;7744;52.172;10.668;2023-05-14T01:42:14;10.00;1.00
15286;DHT22;7744;52.172;10.668;2023-05-14T01:44:51;10.10;1.20
15286;DHT22;7744;52.172;10.668;2023-05-14T01:47:28;10.10;2.70
15286;DHT22;7744;52.172;10.668;2023-05-14T01:49:54;10.00;14.70
15286;DHT22;7744;52.172;10.668;2023-05-14T01:55:23;10.00;17.70
15286;DHT22;7744;52.172;10.668;2023-05-14T01:58:00;10.00;1.70
15286;DHT22;7744;52.172;10.668;2023-05-14T05:59:55;15.80;1.00
15286;DHT22;7744;52.172;10.668;2023-05-14T06:02:21;15.90;1.00
15286;DHT22;7744;52.172;10.668;2023-05-14T06:04:47;16.30;1.00
15286;DHT22;7744;52.172;10.668;2023-05-14T06:07:13;15.80;1.00
15286;DHT22;7744;52.172;10.668;2023-05-14T06:09:38;15.70;1.00
15286;DHT22;7744;52.172;10.668;2023-05-14T06:12:04;15.70;1.00
15286;DHT22;7744;52.172;10.668;2023-05-14T06:14:30;15.70;1.00
15286;DHT22;7744;52.172;10.668;2023-05-14T06:16:56;15.60;1.00
15286;DHT22;7744;52.172;10.668;2023-05-14T06:19:23;15.40;1.00
15286;DHT22;7744;52.172;10.668;2023-05-14T06:21:48;15.20;1.00
15286;DHT22;7744;52.172;10.668;2023-05-14T06:24:14;15.30;1.00
15286;DHT22;7744;52.172;10.668;2023-05-14T06:26:40;15.30;1.00
15286;DHT22;7744;52.172;10.668;2023-05-14T06:29:07;15.40;1.00
15286;DHT22;7744;52.172;10.668;2023-05-14T06:31:34;15.10;1.00
15286;DHT22;7744;52.172;10.668;2023-05-14T06:33:59;15.20;1.00
15286;DHT22;7744;52.172;10.668;2023-05-14T06:36:25;15.20;1.00
15286;DHT22;7744;52.172;10.668;2023-05-14T06:38:51;15.10;1.00
15286;DHT22;7744;52.172;10.668;2023-05-14T06:41:17;16.20;1.00
15286;DHT22;7744;52.172;10.668;2023-05-14T06:43:42;17.80;1.00
15286;DHT22;7744;52.172;10.668;2023-05-14T06:46:08;19.40;1.00
15286;DHT22;7744;52.172;10.668;2023-05-14T06:48:33;19.20;1.00
15286;DHT22;7744;52.172;10.668;2023-05-14T06:50:59;18.90;1.00
15286;DHT22;7744;52.172;10.668;2023-05-14T06:53:24;18.40;1.00
15286;DHT22;7744;52.172;10.668;2023-05-14T06:55:50;17.70;1.00
15286;DHT22;7744;52.172;10.668;2023-05-14T06:58:15;18.10;1.00
15286;DHT22;7744;52.172;10.668;2023-05-14T07:00:41;17.20;1.00
15286;DHT22;7744;52.172;10.668;2023-05-14T07:03:07;17.00;1.00
15286;DHT22;7744;52.172;10.668;2023-05-14T07:05:33;16.90;1.00
15286;DHT22;7744;52.172;10.668;2023-05-14T07:07:58;17.00;1.00
15286;DHT22;7744;52.172;10.668;2023-05-14T07:10:24;17.10;1.00
15286;DHT22;7744;52.172;10.668;2023-05-14T07:12:49;17.20;1.00
15286;DHT22;7744;52.172;10.668;2023-05-14T07:15:15;17.60;1.00
15286;DHT22;7744;52.172;10.668;2023-05-14T07:17:41;18.50;1.00
15286;DHT22;7744;52.172;10.668;2023-05-14T07:20:07;19.40;1.00
15286;DHT22;7744;52.172;10.668;2023-05-14T07:22:32;19.70;1.00
15286;DHT22;7744;52.172;10.668;2023-05-14T07:24:58;19.80;1.00
15286;DHT22;7744;52.172;10.668;2023-05-14T07:27:24;19.90;1.00
15286;DHT22;7744;52.172;10.668;2023-05-14T07:29:50;19.80;1.00
15286;DHT22;7744;52.172;10.668;2023-05-14T07:32:15;19.90;1.00
15286;DHT22;7744;52.172;10.668;2023-05-14T07:34:41;20.20;1.00
15286;DHT22;7744;52.172;10.668;2023-05-14T07:37:07;20.00;1.00
15286;DHT22;7744;52.172;10.668;2023-05-14T07:39:32;19.50;1.00
15286;DHT22;7744;52.172;10.668;2023-05-14T07:41:59;19.30;1.00
15286;DHT22;7744;52.172;10.668;2023-05-14T07:44:25;19.50;1.00
15286;DHT22;7744;52.172;10.668;2023-05-14T07:46:50;19.60;1.00
15286;DHT22;7744;52.172;10.668;2023-05-14T07:49:16;19.70;1.00
15286;DHT22;7744;52.172;10.668;2023-05-14T07:51:42;19.70;1.00
15286;DHT22;7744;52.172;10.668;2023-05-14T07:54:07;19.70;1.00
15286;DHT22;7744;52.172;10.668;2023-05-14T07:56:33;19.50;1.00
15286;DHT22;7744;52.172;10.668;2023-05-14T07:58:59;19.10;1.00
15286;DHT22;7744;52.172;10.668;2023-05-14T08:01:24;19.10;1.00
15286;DHT22;7744;52.172;10.668;2023-05-14T08:03:50;19.00;1.00
15286;DHT22;7744;52.172;10.668;2023-05-14T08:06:16;19.20;1.00
15286;DHT22;7744;52.172;10.668;2023-05-14T08:08:42;19.30;1.00
15286;DHT22;7744;52.172;10.668;2023-05-14T08:11:07;19.20;1.00
15286;DHT22;7744;52.172;10.668;2023-05-14T08:13:33;19.20;1.00
15286;DHT22;7744;52.172;10.668;2023-05-14T08:15:59;19.40;1.00
15286;DHT22;7744;52.172;10.668;2023-05-14T08:18:25;19.30;1.00
15286;DHT22;7744;52.172;10.668;2023-05-14T08:20:50;18.90;1.00
15286;DHT22;7744;52.172;10.668;2023-05-14T08:23:16;18.70;1.00
15286;DHT22;7744;52.172;10.668;2023-05-14T08:25:41;18.60;1.00
15286;DHT22;7744;52.172;10.668;2023-05-14T08:28:07;18.50;1.00
15286;DHT22;7744;52.172;10.668;2023-05-14T08:30:33;18.30;1.00
15286;DHT22;7744;52.172;10.668;2023-05-14T08:32:58;18.90;1.00
15286;DHT22;7744;52.172;10.668;2023-05-14T08:35:24;18.60;1.00
15286;DHT22;7744;52.172;10.668;2023-05-14T08:37:50;18.90;1.00
15286;DHT22;7744;52.172;10.668;2023-05-14T08:40:16;19.30;1.00
15286;DHT22;7744;52.172;10.668;2023-05-14T08:42:43;19.80;1.00
15286;DHT22;7744;52.172;10.668;2023-05-14T08:45:19;19.90;1.00
15286;DHT22;7744;52.172;10.668;2023-05-14T08:47:49;20.10;1.00
15286;DHT22;7744;52.172;10.668;2023-05-14T08:50:15;20.00;1.00
15286;DHT22;7744;52.172;10.668;2023-05-14T08:52:41;20.30;1.00
15286;DHT22;7744;52.172;10.668;2023-05-14T08:55:08;20.00;1.00
15286;DHT22;7744;52.172;10.668;2023-05-14T08:57:36;20.50;1.00
15286;DHT22;7744;52.172;10.668;2023-05-14T09:00:03;20.30;1.00
15286;DHT22;7744;52.172;10.668;2023-05-14T09:02:39;20.50;1.00
15286;DHT22;7744;52.172;10.668;2023-05-14T09:05:05;20.50;1.00
15286;DHT22;7744;52.172;10.668;2023-05-14T09:07:34;20.60;1.00
15286;DHT22;7744;52.172;10.668;2023-05-14T09:10:01;20.70;1.00
15286;DHT22;7744;52.172;10.668;2023-05-14T09:12:27;20.60;1.00
15286;DHT22;7744;52.172;10.668;2023-05-14T09:14:52;20.60;1.00
15286;DHT22;7744;52.172;10.668;2023-05-14T09:17:18;20.40;1.00
15286;DHT22;7744;52.172;10.668;2023-05-14T09:19:45;20.40;1.00
15286;DHT22;7744;52.172;10.668;2023-05-14T09:22:15;20.40;1.00
15286;DHT22;7744;52.172;10.668;2023-05-14T09:24:41;20.30;1.00
15286;DHT22;7744;52.172;10.668;2023-05-14T09:27:16;20.20;1.00
15286;DHT22;7744;52.172;10.668;2023-05-14T09:29:42;19.90;1.00
15286;DHT22;7744;52.172;10.668;2023-05-14T09:32:08;19.70;1.00
15286;DHT22;7744;52.172;10.668;2023-05-14T09:34:35;19.80;1.00
15286;DHT22;7744;52.172;10.668;2023-05-14T09:37:04;19.70;1.00
15286;DHT22;7744;52.172;10.668;2023-05-14T09:39:31;19.70;1.00
15286;DHT22;7744;52.172;10.668;2023-05-14T09:41:57;19.70;1.00
15286;DHT22;7744;52.172;10.668;2023-05-14T09:44:24;19.50;1.00
15286;DHT22;7744;52.172;10.668;2023-05-14T09:46:50;19.30;1.00
15286;DHT22;7744;52.172;10.668;2023-05-14T09:49:16;19.00;1.00
15286;DHT22;7744;52.172;10.668;2023-05-14T09:51:42;18.90;1.00
15286;DHT22;7744;52.172;10.668;2023-05-14T09:54:08;19.20;1.00
15286;DHT22;7744;52.172;10.668;2023-05-14T09:56:35;19.10;1.00
15286;DHT22;7744;52.172;10.668;2023-05-14T09:59:01;19.30;1.00
15286;DHT22;7744;52.172;10.668;2023-05-14T10:01:28;19.40;1.00
15286;DHT22;7744;52.172;10.668;2023-05-14T10:03:54;19.50;1.00
15286;DHT22;7744;52.172;10.668;2023-05-14T10:06:29;19.30;1.00
15286;DHT22;7744;52.172;10.668;2023-05-14T10:09:00;19.50;1.00
15286;DHT22;7744;52.172;10.668;2023-05-14T10:11:30;19.50;1.00
15286;DHT22;7744;52.172;10.668;2023-05-14T10:16:33;19.90;1.00
15286;DHT22;7744;52.172;10.668;2023-05-14T10:19:07;20.20;1.00
15286;DHT22;7744;52.172;10.668;2023-05-14T10:21:35;20.40;1.00
15286;DHT22;7744;52.172;10.668;2023-05-14T10:24:02;20.60;1.00
15286;DHT22;7744;52.172;10.668;2023-05-14T10:26:30;20.60;1.00
15286;DHT22;7744;52.172;10.668;2023-05-14T10:28:57;20.70;1.00
15286;DHT22;7744;52.172;10.668;2023-05-14T10:31:43;20.70;1.00
15286;DHT22;7744;52.172;10.668;2023-05-14T10:34:38;20.60;1.00
15286;DHT22;7744;52.172;10.668;2023-05-14T10:37:19;20.70;1.00
15286;DHT22;7744;52.172;10.668;2023-05-14T10:40:03;20.70;1.00
15286;DHT22;7744;52.172;10.668;2023-05-14T10:42:31;20.40;1.00
15286;DHT22;7744;52.172;10.668;2023-05-14T10:45:01;20.30;1.00
15286;DHT22;7744;52.172;10.668;2023-05-14T10:47:31;20.20;1.00
15286;DHT22;7744;52.172;10.668;2023-05-14T10:49:58;20.10;1.00
15286;DHT22;7744;52.172;10.668;2023-05-14T10:52:25;20.30;1.00
15286;DHT22;7744;52.172;10.668;2023-05-14T10:54:55;20.40;1.00
15286;DHT22;7744;52.172;10.668;2023-05-14T10:57:23;20.60;1.00
15286;DHT22;7744;52.172;10.668;2023-05-14T10:59:51;20.60;1.00
15286;DHT22;7744;52.172;10.668;2023-05-14T11:02:33;20.70;1.00
15286;DHT22;7744;52.172;10.668;2023-05-14T11:05:06;20.60;1.00
15286;DHT22;7744;52.172;10.668;2023-05-14T11:07:34;20.60;1.00
15286;DHT22;7744;52.172;10.668;2023-05-14T11:10:00;20.60;1.00
15286;DHT22;7744;52.172;10.668;2023-05-14T11:12:27;20.40;1.00
15286;DHT22;7744;52.172;10.668;2023-05-14T11:14:55;20.40;1.00
15286;DHT22;7744;52.172;10.668;2023-05-14T11:17:21;20.40;1.00
15286;DHT22;7744;52.172;10.668;2023-05-14T11:19:47;20.20;1.00
15286;DHT22;7744;52.172;10.668;2023-05-14T11:22:12;20.40;1.00
15286;DHT22;7744;52.172;10.668;2023-05-14T11:24:39;20.30;1.00
15286;DHT22;7744;52.172;10.668;2023-05-14T11:27:07;20.60;1.00
15286;DHT22;7744;52.172;10.668;2023-05-14T11:29:34;20.90;1.00
15286;DHT22;7744;52.172;10.668;2023-05-14T11:32:01;21.20;1.00
15286;DHT22;7744;52.172;10.668;2023-05-14T11:34:27;21.30;1.00
15286;DHT22;7744;52.172;10.668;2023-05-14T11:39:50;21.20;1.00
15286;DHT22;7744;52.172;10.668;2023-05-14T12:03:16;22.30;1.00
15286;DHT22;7744;52.172;10.668;2023-05-14T12:12:34;22.60;1.00
15286;DHT22;7744;52.172;10.668;2023-05-14T12:15:01;22.50;1.00
15286;DHT22;7744;52.172;10.668;2023-05-14T12:17:26;22.50;1.00
15286;DHT22;7744;52.172;10.668;2023-05-14T12:19:52;22.40;1.00
15286;DHT22;7744;52.172;10.668;2023-05-14T12:22:19;22.40;1.00
15286;DHT22;7744;52.172;10.668;2023-05-14T12:24:56;22.40;1.00
15286;DHT22;7744;52.172;10.668;2023-05-14T12:27:23;22.30;1.00
15286;DHT22;7744;52.172;10.668;2023-05-14T12:29:50;22.10;1.00
15286;DHT22;7744;52.172;10.668;2023-05-14T12:32:17;21.70;1.00
15286;DHT22;7744;52.172;10.668;2023-05-14T12:34:44;21.50;1.00
15286;DHT22;7744;52.172;10.668;2023-05-14T12:37:10;21.30;1.00
15286;DHT22;7744;52.172;10.668;2023-05-14T12:39:36;21.30;1.00
15286;DHT22;7744;52.172;10.668;2023-05-14T12:42:02;21.30;1.00
15286;DHT22;7744;52.172;10.668;2023-05-14T12:44:27;21.10;1.00
15286;DHT22;7744;52.172;10.668;2023-05-14T12:46:53;21.20;1.00
15286;DHT22;7744;52.172;10.668;2023-05-14T12:49:19;21.20;1.00
15286;DHT22;7744;52.172;10.668;2023-05-14T12:51:44;21.00;1.00
15286;DHT22;7744;52.172;10.668;2023-05-14T12:54:11;21.00;1.00
15286;DHT22;7744;52.172;10.668;2023-05-14T13:05:11;20.40;1.00
15286;DHT22;7744;52.172;10.668;2023-05-14T13:07:37;20.20;1.00
15286;DHT22;7744;52.172;10.668;2023-05-14T13:10:03;20.30;1.00
15286;DHT22;7744;52.172;10.668;2023-05-14T13:12:30;20.30;1.00
15286;DHT22;7744;52.172;10.668;2023-05-14T13:14:55;20.40;1.00
15286;DHT22;7744;52.172;10.668;2023-05-14T13:17:21;20.40;1.00
15286;DHT22;7744;52.172;10.668;2023-05-14T13:19:46;20.30;1.00
15286;DHT22;7744;52.172;10.668;2023-05-14T13:22:12;20.40;1.00
15286;DHT22;7744;52.172;10.668;2023-05-14T13:24:38;20.50;1.00
15286;DHT22;7744;52.172;10.668;2023-05-14T13:27:04;20.80;1.00
15286;DHT22;7744;52.172;10.668;2023-05-14T13:29:30;20.90;1.00
15286;DHT22;7744;52.172;10.668;2023-05-14T13:31:56;21.00;1.00
15286;DHT22;7744;52.172;10.668;2023-05-14T13:34:21;21.10;1.00
15286;DHT22;7744;52.172;10.668;2023-05-14T13:36:47;21.20;1.00
15286;DHT22;7744;52.172;10.668;2023-05-14T13:39:14;21.20;1.00
15286;DHT22;7744;52.172;10.668;2023-05-14T13:41:40;21.30;1.00
15286;DHT22;7744;52.172;10.668;2023-05-14T13:44:05;21.50;1.00
15286;DHT22;7744;52.172;10.668;2023-05-14T13:46:31;21.50;1.00
15286;DHT22;7744;52.172;10.668;2023-05-14T13:48:57;21.60;1.00
15286;DHT22;7744;52.172;10.668;2023-05-14T13:51:22;21.40;1.00
15286;DHT22;7744;52.172;10.668;2023-05-14T13:53:48;21.40;1.00
15286;DHT22;7744;52.172;10.668;2023-05-14T13:56:14;21.30;1.00
15286;DHT22;7744;52.172;10.668;2023-05-14T13:58:39;21.00;1.00
15286;DHT22;7744;52.172;10.668;2023-05-14T14:01:05;20.80;1.00
15286;DHT22;7744;52.172;10.668;2023-05-14T14:03:31;20.70;1.00
15286;DHT22;7744;52.172;10.668;2023-05-14T14:08:27;20.20;1.00
15286;DHT22;7744;52.172;10.668;2023-05-14T14:11:10;20.10;1.00
15286;DHT22;7744;52.172;10.668;2023-05-14T14:20:20;20.10;1.00
15286;DHT22;7744;52.172;10.668;2023-05-14T14:25:37;24.10;1.00
15286;DHT22;7744;52.172;10.668;2023-05-14T14:28:18;20.00;1.00
15286;DHT22;7744;52.172;10.668;2023-05-14T14:30:49;20.00;1.00
15286;DHT22;7744;52.172;10.668;2023-05-14T14:34:18;20.20;1.00
15286;DHT22;7744;52.172;10.668;2023-05-14T14:37:05;20.00;1.00
15286;DHT22;7744;52.172;10.668;2023-05-14T14:39:45;20.10;1.00
15286;DHT22;7744;52.172;10.668;2023-05-14T14:42:51;20.00;1.00
15286;DHT22;7744;52.172;10.668;2023-05-14T14:45:22;19.70;1.00
15286;DHT22;7744;52.172;10.668;2023-05-14T14:50:55;19.60;1.00
15286;DHT22;7744;52.172;10.668;2023-05-14T14:53:22;19.70;1.00
15286;DHT22;7744;52.172;10.668;2023-05-14T14:55:49;19.50;1.00
15286;DHT22;7744;52.172;10.668;2023-05-14T14:58:15;19.60;1.00
15286;DHT22;7744;52.172;10.668;2023-05-14T15:04:22;20.00;1.00
15286;DHT22;7744;52.172;10.668;2023-05-14T15:07:05;20.20;1.00
15286;DHT22;7744;52.172;10.668;2023-05-14T15:12:55;20.60;1.00
15286;DHT22;7744;52.172;10.668;2023-05-14T15:16:08;21.20;1.00
15286;DHT22;7744;52.172;10.668;2023-05-14T15:18:45;20.60;1.00
15286;DHT22;7744;52.172;10.668;2023-05-14T15:24:26;21.00;1.00
15286;DHT22;7744;52.172;10.668;2023-05-14T15:31:03;21.00;1.00
15286;DHT22;7744;52.172;10.668;2023-05-14T15:36:52;21.20;1.00
15286;DHT22;7744;52.172;10.668;2023-05-14T15:39:17;22.60;1.00
15286;DHT22;7744;52.172;10.668;2023-05-14T15:41:44;21.30;1.00
15286;DHT22;7744;52.172;10.668;2023-05-14T15:44:09;21.40;1.00
15286;DHT22;7744;52.172;10.668;2023-05-14T15:46:35;20.90;1.00
15286;DHT22;7744;52.172;10.668;2023-05-14T15:49:02;20.90;1.00
15286;DHT22;7744;52.172;10.668;2023-05-14T15:51:27;20.30;1.00
15286;DHT22;7744;52.172;10.668;2023-05-14T15:53:53;20.10;1.00
15286;DHT22;7744;52.172;10.668;2023-05-14T15:56:20;20.00;1.00
15286;DHT22;7744;52.172;10.668;2023-05-14T15:58:45;19.90;1.00
15286;DHT22;7744;52.172;10.668;2023-05-14T16:01:11;20.00;1.00
15286;DHT22;7744;52.172;10.668;2023-05-14T16:03:36;20.00;1.00
15286;DHT22;7744;52.172;10.668;2023-05-14T16:06:02;20.00;1.00
15286;DHT22;7744;52.172;10.668;2023-05-14T16:08:28;20.00;1.00
15286;DHT22;7744;52.172;10.668;2023-05-14T16:10:54;20.20;1.00
15286;DHT22;7744;52.172;10.668;2023-05-14T16:13:19;20.20;1.00
15286;DHT22;7744;52.172;10.668;2023-05-14T16:15:45;20.30;1.00
15286;DHT22;7744;52.172;10.668;2023-05-14T16:18:11;23.20;1.00
15286;DHT22;7744;52.172;10.668;2023-05-14T16:20:37;20.40;1.00
15286;DHT22;7744;52.172;10.668;2023-05-14T16:23:02;20.60;1.00
15286;DHT22;7744;52.172;10.668;2023-05-14T16:25:29;20.90;1.00
15286;DHT22;7744;52.172;10.668;2023-05-14T16:27:55;20.50;1.00
15286;DHT22;7744;52.172;10.668;2023-05-14T16:30:20;20.60;1.00
15286;DHT22;7744;52.172;10.668;2023-05-14T16:35:14;20.50;1.00
15286;DHT22;7744;52.172;10.668;2023-05-14T16:37:39;20.30;1.00
15286;DHT22;7744;52.172;10.668;2023-05-14T16:40:06;20.40;1.00
15286;DHT22;7744;52.172;10.668;2023-05-14T16:42:33;20.10;1.00
15286;DHT22;7744;52.172;10.668;2023-05-14T16:44:59;20.20;1.00
15286;DHT22;7744;52.172;10.668;2023-05-14T16:47:24;21.10;1.00
15286;DHT22;7744;52.172;10.668;2023-05-14T16:49:50;19.90;1.00
15286;DHT22;7744;52.172;10.668;2023-05-14T16:52:15;19.90;1.00
15286;DHT22;7744;52.172;10.668;2023-05-14T16:54:41;19.80;1.00
15286;DHT22;7744;52.172;10.668;2023-05-14T16:57:06;19.90;1.00
15286;DHT22;7744;52.172;10.668;2023-05-14T16:59:32;20.00;1.00
15286;DHT22;7744;52.172;10.668;2023-05-14T17:01:57;19.80;1.00
15286;DHT22;7744;52.172;10.668;2023-05-14T17:04:23;19.50;1.00
15286;DHT22;7744;52.172;10.668;2023-05-14T17:06:50;20.10;1.00
15286;DHT22;7744;52.172;10.668;2023-05-14T17:09:16;20.00;1.00
15286;DHT22;7744;52.172;10.668;2023-05-14T17:11:42;19.30;1.00
15286;DHT22;7744;52.172;10.668;2023-05-14T17:14:07;19.50;1.00
15286;DHT22;7744;52.172;10.668;2023-05-14T17:16:33;19.10;1.00
15286;DHT22;7744;52.172;10.668;2023-05-14T17:18:58;19.10;1.00
15286;DHT22;7744;52.172;10.668;2023-05-14T17:21:24;19.10;1.00
15286;DHT22;7744;52.172;10.668;2023-05-14T17:26:15;18.50;1.00
15286;DHT22;7744;52.172;10.668;2023-05-14T17:28:41;18.40;1.00
15286;DHT22;7744;52.172;10.668;2023-05-14T17:31:07;18.50;1.00
15286;DHT22;7744;52.172;10.668;2023-05-14T17:33:32;18.80;1.00
15286;DHT22;7744;52.172;10.668;2023-05-14T17:35:58;18.50;1.00
15286;DHT22;7744;52.172;10.668;2023-05-14T17:38:24;18.30;1.00
15286;DHT22;7744;52.172;10.668;2023-05-14T17:40:50;17.90;1.00
15286;DHT22;7744;52.172;10.668;2023-05-14T17:43:15;17.70;1.00
15286;DHT22;7744;52.172;10.668;2023-05-14T17:45:41;18.70;1.00
15286;DHT22;7744;52.172;10.668;2023-05-14T17:48:07;17.60;1.00
15286;DHT22;7744;52.172;10.668;2023-05-14T17:52:58;17.40;1.00
15286;DHT22;7744;52.172;10.668;2023-05-14T17:55:24;18.50;1.00
15286;DHT22;7744;52.172;10.668;2023-05-14T17:57:49;17.20;1.00
15286;DHT22;7744;52.172;10.668;2023-05-14T18:00:15;17.10;1.00
15286;DHT22;7744;52.172;10.668;2023-05-14T18:02:41;17.10;1.00
15286;DHT22;7744;52.172;10.668;2023-05-14T18:05:07;17.00;1.00
15286;DHT22;7744;52.172;10.668;2023-05-14T18:07:33;17.00;1.00
15286;DHT22;7744;52.172;10.668;2023-05-14T18:09:59;16.90;1.00
15286;DHT22;7744;52.172;10.668;2023-05-14T18:12:24;17.10;1.00
15286;DHT22;7744;52.172;10.668;2023-05-14T18:14:51;16.80;1.00
15286;DHT22;7744;52.172;10.668;2023-05-14T18:17:16;17.80;1.00
15286;DHT22;7744;52.172;10.668;2023-05-14T18:19:42;17.80;1.00
15286;DHT22;7744;52.172;10.668;2023-05-14T18:22:08;16.90;1.00
15286;DHT22;7744;52.172;10.668;2023-05-14T18:24:33;17.30;1.00
15286;DHT22;7744;52.172;10.668;2023-05-14T18:26:59;16.70;1.00
15286;DHT22;7744;52.172;10.668;2023-05-14T18:29:25;17.60;1.00
15286;DHT22;7744;52.172;10.668;2023-05-14T18:31:50;17.80;1.00
15286;DHT22;7744;52.172;10.668;2023-05-14T18:34:16;17.40;1.00
15286;DHT22;7744;52.172;10.668;2023-05-14T18:36:41;16.40;1.00
15286;DHT22;7744;52.172;10.668;2023-05-14T18:39:07;17.40;1.00
15286;DHT22;7744;52.172;10.668;2023-05-14T18:41:33;17.10;1.00
15286;DHT22;7744;52.172;10.668;2023-05-14T18:43:58;16.40;1.00
15286;DHT22;7744;52.172;10.668;2023-05-14T18:46:24;16.20;1.00
15286;DHT22;7744;52.172;10.668;2023-05-14T18:48:50;17.10;1.00
15286;DHT22;7744;52.172;10.668;2023-05-14T18:51:15;16.80;1.00
15286;DHT22;7744;52.172;10.668;2023-05-14T18:53:41;15.90;1.00
15286;DHT22;7744;52.172;10.668;2023-05-14T18:56:07;15.50;1.00
15286;DHT22;7744;52.172;10.668;2023-05-14T18:58:34;16.60;1.00
15286;DHT22;7744;52.172;10.668;2023-05-14T19:00:59;15.60;1.00
15286;DHT22;7744;52.172;10.668;2023-05-14T19:03:25;15.40;1.00
15286;DHT22;7744;52.172;10.668;2023-05-14T19:05:52;15.30;1.00
15286;DHT22;7744;52.172;10.668;2023-05-14T19:08:17;16.30;1.00
15286;DHT22;7744;52.172;10.668;2023-05-14T19:10:43;15.50;1.00
15286;DHT22;7744;52.172;10.668;2023-05-14T19:13:09;15.70;1.00
15286;DHT22;7744;52.172;10.668;2023-05-14T19:15:34;16.10;1.00
15286;DHT22;7744;52.172;10.668;2023-05-14T19:18:00;15.00;1.00
15286;DHT22;7744;52.172;10.668;2023-05-14T19:20:26;15.50;1.00
15286;DHT22;7744;52.172;10.668;2023-05-14T19:22:51;15.60;1.00
15286;DHT22;7744;52.172;10.668;2023-05-14T19:25:17;14.90;1.00
15286;DHT22;7744;52.172;10.668;2023-05-14T19:27:43;15.70;1.00
15286;DHT22;7744;52.172;10.668;2023-05-14T19:30:09;14.80;1.00
15286;DHT22;7744;52.172;10.668;2023-05-14T19:32:35;14.80;1.00
15286;DHT22;7744;52.172;10.668;2023-05-14T19:35:03;14.80;1.00
15286;DHT22;7744;52.172;10.668;2023-05-14T19:37:28;14.80;1.00
15286;DHT22;7744;52.172;10.668;2023-05-14T19:39:54;15.40;1.00
15286;DHT22;7744;52.172;10.668;2023-05-14T19:42:19;16.00;1.00
15286;DHT22;7744;52.172;10.668;2023-05-14T19:44:45;14.60;1.00
15286;DHT22;7744;52.172;10.668;2023-05-14T19:47:11;16.30;1.00
15286;DHT22;7744;52.172;10.668;2023-05-14T19:49:36;15.40;1.00
15286;DHT22;7744;52.172;10.668;2023-05-14T19:52:02;14.50;1.00
15286;DHT22;7744;52.172;10.668;2023-05-14T19:54:27;14.50;1.00
15286;DHT22;7744;52.172;10.668;2023-05-14T19:56:53;14.40;1.00
15286;DHT22;7744;52.172;10.668;2023-05-14T20:01:45;14.30;24.90
15286;DHT22;7744;52.172;10.668;2023-05-14T20:04:11;14.20;1.00
15286;DHT22;7744;52.172;10.668;2023-05-14T20:06:38;14.20;1.00
15286;DHT22;7744;52.172;10.668;2023-05-14T20:09:04;14.10;1.00
15286;DHT22;7744;52.172;10.668;2023-05-14T20:11:31;14.90;1.00
15286;DHT22;7744;52.172;10.668;2023-05-14T20:13:56;14.10;1.00
15286;DHT22;7744;52.172;10.668;2023-05-14T20:16:23;14.10;1.00
15286;DHT22;7744;52.172;10.668;2023-05-14T20:18:56;14.00;1.00
15286;DHT22;7744;52.172;10.668;2023-05-14T20:21:22;13.90;1.00
15286;DHT22;7744;52.172;10.668;2023-05-14T20:23:48;14.20;1.00
15286;DHT22;7744;52.172;10.668;2023-05-14T20:28:55;13.90;64.40
15286;DHT22;7744;52.172;10.668;2023-05-14T20:31:20;13.80;1.00
15286;DHT22;7744;52.172;10.668;2023-05-14T20:33:46;13.80;1.00
15286;DHT22;7744;52.172;10.668;2023-05-14T20:36:11;13.70;1.00
15286;DHT22;7744;52.172;10.668;2023-05-14T20:38:37;13.80;1.00
15286;DHT22;7744;52.172;10.668;2023-05-14T20:41:03;15.00;1.00
15286;DHT22;7744;52.172;10.668;2023-05-14T20:43:28;13.90;1.00
15286;DHT22;7744;52.172;10.668;2023-05-14T20:45:56;13.70;1.00
15286;DHT22;7744;52.172;10.668;2023-05-14T20:48:22;13.70;1.00
15286;DHT22;7744;52.172;10.668;2023-05-14T20:50:47;14.50;1.00
15286;DHT22;7744;52.172;10.668;2023-05-14T20:53:13;13.90;1.00
15286;DHT22;7744;52.172;10.668;2023-05-14T20:55:39;13.80;1.00
15286;DHT22;7744;52.172;10.668;2023-05-14T20:58:05;14.00;1.00
15286;DHT22;7744;52.172;10.668;2023-05-14T21:00:31;14.40;1.00
15286;DHT22;7744;52.172;10.668;2023-05-14T21:02:57;13.80;1.00
15286;DHT22;7744;52.172;10.668;2023-05-14T21:05:24;13.70;1.00
15286;DHT22;7744;52.172;10.668;2023-05-14T21:07:50;15.00;1.00
15286;DHT22;7744;52.172;10.668;2023-05-14T21:10:15;13.70;1.00
15286;DHT22;7744;52.172;10.668;2023-05-14T21:12:42;13.70;1.00
15286;DHT22;7744;52.172;10.668;2023-05-14T21:15:08;13.70;1.00
15286;DHT22;7744;52.172;10.668;2023-05-14T21:17:34;13.70;1.00
15286;DHT22;7744;52.172;10.668;2023-05-14T21:19:59;15.70;1.00
15286;DHT22;7744;52.172;10.668;2023-05-14T21:22:26;13.80;1.00
15286;DHT22;7744;52.172;10.668;2023-05-14T21:24:54;13.60;1.00
15286;DHT22;7744;52.172;10.668;2023-05-14T21:27:20;13.40;29.70
15286;DHT22;7744;52.172;10.668;2023-05-14T21:29:46;13.50;91.70
15286;DHT22;7744;52.172;10.668;2023-05-14T21:32:12;13.40;1.00